createdAt,value
2023-02-24T00:00:47.409Z,57.36
2023-02-24T00:02:48.764Z,57.56
2023-02-24T00:04:53.144Z,57.57
2023-02-24T00:06:54.442Z,57.72
2023-02-24T00:08:56.171Z,57.90
2023-02-24T00:10:57.645Z,57.45
2023-02-24T00:12:59.258Z,58.02
2023-02-24T00:15:00.581Z,58.91
2023-02-24T00:17:02.385Z,58.98
2023-02-24T00:19:03.920Z,58.90
2023-02-24T00:21:05.642Z,59.67
2023-02-24T00:23:09.816Z,59.43
2023-02-24T00:25:12.203Z,59.70
2023-02-24T00:27:13.516Z,60.57
2023-02-24T00:29:14.819Z,60.15
2023-02-24T00:31:16.331Z,60.78
2023-02-24T00:33:22.510Z,60.89
2023-02-24T00:35:23.982Z,60.34
2023-02-24T00:37:25.289Z,61.08
2023-02-24T00:39:30.391Z,61.13
2023-02-24T00:41:31.789Z,61.78
2023-02-24T00:43:37.128Z,61.46
2023-02-24T00:45:41.151Z,62.15
2023-02-24T00:47:42.474Z,62.23
2023-02-24T00:49:43.877Z,62.25
2023-02-24T00:51:45.500Z,62.29
2023-02-24T00:53:46.844Z,62.06
2023-02-24T00:55:48.143Z,62.27
2023-02-24T00:57:52.202Z,62.15
2023-02-24T00:59:53.490Z,62.08
2023-02-24T01:01:55.021Z,62.25
2023-02-24T01:03:56.441Z,62.17
2023-02-24T01:05:57.757Z,62.18
2023-02-24T01:07:59.776Z,61.45
2023-02-24T01:10:01.519Z,61.60
2023-02-24T01:12:38.099Z,61.31
2023-02-24T01:14:42.587Z,61.33
2023-02-24T01:17:02.195Z,61.81
2023-02-24T01:19:03.523Z,61.23
2023-02-24T01:21:04.821Z,61.43
2023-02-24T01:23:06.120Z,61.37
2023-02-24T01:25:09.172Z,61.31
2023-02-24T01:27:10.524Z,61.00
2023-02-24T01:29:11.827Z,61.12
2023-02-24T01:31:13.244Z,61.17
2023-02-24T01:33:14.756Z,61.07
2023-02-24T01:35:16.157Z,60.86
2023-02-24T01:37:19.210Z,60.78
2023-02-24T01:39:21.153Z,60.46
2023-02-24T01:41:22.686Z,60.63
2023-02-24T01:43:24.016Z,60.37
2023-02-24T01:45:25.364Z,60.49
2023-02-24T01:47:30.457Z,60.93
2023-02-24T01:49:34.079Z,60.85
2023-02-24T01:51:35.426Z,60.88
2023-02-24T01:53:36.730Z,60.36
2023-02-24T01:55:38.060Z,60.68
2023-02-24T01:57:39.413Z,60.61
2023-02-24T01:59:40.714Z,60.70
2023-02-24T02:01:42.994Z,60.51
2023-02-24T02:03:44.351Z,60.71
2023-02-24T02:05:48.686Z,60.28
2023-02-24T02:07:50.683Z,60.31
2023-02-24T02:09:54.658Z,60.67
2023-02-24T02:11:55.988Z,60.66
2023-02-24T02:13:57.375Z,60.90
2023-02-24T02:15:58.865Z,60.70
2023-02-24T02:18:00.175Z,61.01
2023-02-24T02:20:01.503Z,60.80
2023-02-24T02:22:02.894Z,61.48
2023-02-24T02:24:04.510Z,60.96
2023-02-24T02:26:05.906Z,61.25
2023-02-24T02:28:07.232Z,60.73
2023-02-24T02:30:13.819Z,60.94
2023-02-24T02:32:15.230Z,61.12
2023-02-24T02:34:17.015Z,61.09
2023-02-24T02:36:18.305Z,60.96
2023-02-24T02:38:25.919Z,60.52
2023-02-24T02:40:27.254Z,60.35
2023-02-24T02:42:28.587Z,60.68
2023-02-24T02:44:32.321Z,61.02
2023-02-24T02:46:36.504Z,60.97
2023-02-24T02:48:37.840Z,61.35
2023-02-24T02:50:39.169Z,61.36
2023-02-24T02:52:40.501Z,60.57
2023-02-24T02:54:45.497Z,60.84
2023-02-24T02:56:47.235Z,60.94
2023-02-24T02:58:48.536Z,61.10
2023-02-24T03:01:02.200Z,60.64
2023-02-24T03:03:03.543Z,60.88
2023-02-24T03:05:05.237Z,60.90
2023-02-24T03:07:06.592Z,60.91
2023-02-24T03:09:12.372Z,60.51
2023-02-24T03:11:14.119Z,60.43
2023-02-24T03:13:16.446Z,60.73
2023-02-24T03:15:17.735Z,60.73
2023-02-24T03:17:21.645Z,60.39
2023-02-24T03:19:22.954Z,60.65
2023-02-24T03:21:24.268Z,60.47
2023-02-24T03:23:26.988Z,60.92
2023-02-24T03:25:30.803Z,60.79
2023-02-24T03:27:32.496Z,60.52
2023-02-24T03:29:33.811Z,60.48
2023-02-24T03:31:35.132Z,60.81
2023-02-24T03:33:36.911Z,60.35
2023-02-24T03:35:38.239Z,61.12
2023-02-24T03:37:39.695Z,61.01
2023-02-24T03:39:41.051Z,61.02
2023-02-24T03:41:42.386Z,60.57
2023-02-24T03:43:45.003Z,60.85
2023-02-24T03:45:46.849Z,60.23
2023-02-24T03:47:48.221Z,60.52
2023-02-24T03:49:50.273Z,60.49
2023-02-24T03:51:56.975Z,59.64
2023-02-24T03:53:58.280Z,59.03
2023-02-24T03:56:00.535Z,58.71
2023-02-24T03:58:02.402Z,58.09
2023-02-24T04:00:16.726Z,58.97
2023-02-24T04:02:18.059Z,58.91
2023-02-24T04:04:19.545Z,58.30
2023-02-24T04:06:20.887Z,58.27
2023-02-24T04:08:23.423Z,58.25
2023-02-24T04:10:24.737Z,58.11
2023-02-24T04:12:26.911Z,58.20
2023-02-24T04:14:28.235Z,57.88
2023-02-24T04:16:29.598Z,57.85
2023-02-24T04:18:31.231Z,57.47
2023-02-24T04:20:32.733Z,57.49
2023-02-24T04:22:36.193Z,57.24
2023-02-24T04:24:37.557Z,57.07
2023-02-24T04:26:40.496Z,57.15
2023-02-24T04:28:42.208Z,56.61
2023-02-24T04:30:43.688Z,56.98
2023-02-24T04:32:45.186Z,56.56
2023-02-24T04:34:46.942Z,56.50
2023-02-24T04:36:49.765Z,56.31
2023-02-24T04:38:52.118Z,56.36
2023-02-24T04:40:53.532Z,56.67
2023-02-24T04:42:54.928Z,56.37
2023-02-24T04:44:58.581Z,56.58
2023-02-24T04:47:00.731Z,56.47
2023-02-24T04:49:02.457Z,56.38
2023-02-24T04:51:06.680Z,56.60
2023-02-24T04:53:09.393Z,56.57
2023-02-24T04:55:10.912Z,56.92
2023-02-24T04:57:12.884Z,56.74
2023-02-24T04:59:14.207Z,56.98
2023-02-24T05:01:15.555Z,56.50
2023-02-24T05:03:18.400Z,56.76
2023-02-24T05:05:25.711Z,57.01
2023-02-24T05:07:29.104Z,57.14
2023-02-24T05:09:30.424Z,56.82
2023-02-24T05:11:34.907Z,57.03
2023-02-24T05:13:37.683Z,57.39
2023-02-24T05:15:39.103Z,57.39
2023-02-24T05:17:41.124Z,57.13
2023-02-24T05:20:02.252Z,57.18
2023-02-24T05:22:04.475Z,57.19
2023-02-24T05:24:11.252Z,57.05
2023-02-24T05:26:12.555Z,57.52
2023-02-24T05:28:13.871Z,57.21
2023-02-24T05:30:15.311Z,57.09
2023-02-24T05:32:16.807Z,57.06
2023-02-24T05:34:18.278Z,56.69
2023-02-24T05:36:19.847Z,56.90
2023-02-24T05:38:21.162Z,56.65
2023-02-24T05:40:24.744Z,56.65
2023-02-24T05:42:26.135Z,56.60
2023-02-24T05:44:27.470Z,56.34
2023-02-24T05:46:28.794Z,56.11
2023-02-24T05:48:35.075Z,55.49
2023-02-24T05:50:36.642Z,55.89
2023-02-24T05:52:37.980Z,55.49
2023-02-24T05:54:39.343Z,55.64
2023-02-24T05:56:42.336Z,55.17
2023-02-24T05:58:45.208Z,55.46
2023-02-24T06:00:46.572Z,55.24
2023-02-24T06:02:50.982Z,55.25
2023-02-24T06:04:54.036Z,55.20
2023-02-24T06:06:55.511Z,55.23
2023-02-24T06:08:57.885Z,55.00
2023-02-24T06:10:59.403Z,55.43
2023-02-24T06:13:00.987Z,54.97
2023-02-24T06:15:07.394Z,55.60
2023-02-24T06:17:08.993Z,55.16
2023-02-24T06:19:10.410Z,55.52
2023-02-24T06:21:12.688Z,55.60
2023-02-24T06:23:16.892Z,55.41
2023-02-24T06:25:18.560Z,55.69
2023-02-24T06:27:21.455Z,55.55
2023-02-24T06:29:25.004Z,55.95
2023-02-24T06:31:27.412Z,55.85
2023-02-24T06:33:28.802Z,55.89
2023-02-24T06:35:30.113Z,55.53
2023-02-24T06:37:31.410Z,55.69
2023-02-24T06:39:33.478Z,55.68
2023-02-24T06:41:37.964Z,55.72
2023-02-24T06:43:39.436Z,55.69
2023-02-24T06:45:41.072Z,55.50
2023-02-24T06:47:42.965Z,55.81
2023-02-24T06:49:44.301Z,55.45
2023-02-24T06:51:45.592Z,55.98
2023-02-24T06:53:46.888Z,55.92
2023-02-24T06:55:48.982Z,56.13
2023-02-24T06:57:50.310Z,55.90
2023-02-24T06:59:52.349Z,55.60
2023-02-24T07:01:53.969Z,55.77
2023-02-24T07:04:07.805Z,55.62
2023-02-24T07:06:23.924Z,55.42
2023-02-24T07:08:27.240Z,55.35
2023-02-24T07:10:29.565Z,55.36
2023-02-24T07:12:31.010Z,55.15
2023-02-24T07:14:32.524Z,55.28
2023-02-24T07:16:34.742Z,55.13
2023-02-24T07:18:36.932Z,54.57
2023-02-24T07:20:43.678Z,55.00
2023-02-24T07:22:46.105Z,54.41
2023-02-24T07:24:47.404Z,54.54
2023-02-24T07:26:51.861Z,54.28
2023-02-24T07:28:54.980Z,54.35
2023-02-24T07:30:57.292Z,54.77
2023-02-24T07:32:58.703Z,54.56
2023-02-24T07:35:00.020Z,54.73
2023-02-24T07:37:06.644Z,54.82
2023-02-24T07:39:08.145Z,54.56
2023-02-24T07:41:12.416Z,54.36
2023-02-24T07:43:15.992Z,54.69
2023-02-24T07:45:17.404Z,54.69
2023-02-24T07:47:18.927Z,54.61
2023-02-24T07:49:20.308Z,54.89
2023-02-24T07:51:21.862Z,54.80
2023-02-24T07:53:23.348Z,55.24
2023-02-24T07:55:31.293Z,55.15
2023-02-24T07:57:33.442Z,55.35
2023-02-24T07:59:35.208Z,55.04
2023-02-24T08:01:39.014Z,54.90
2023-02-24T08:03:41.476Z,54.92
2023-02-24T08:05:43.692Z,55.14
2023-02-24T08:07:49.821Z,55.21
2023-02-24T08:10:09.731Z,54.89
2023-02-24T08:12:11.087Z,55.34
2023-02-24T08:14:13.780Z,55.02
2023-02-24T08:16:15.157Z,55.56
2023-02-24T08:18:29.641Z,55.12
2023-02-24T08:20:36.284Z,54.96
2023-02-24T08:22:37.774Z,54.99
2023-02-24T08:24:39.159Z,55.29
2023-02-24T08:26:44.770Z,55.31
2023-02-24T08:28:46.133Z,55.02
2023-02-24T08:30:47.772Z,54.88
2023-02-24T08:32:56.654Z,54.93
2023-02-24T08:35:02.964Z,54.47
2023-02-24T08:37:04.336Z,54.44
2023-02-24T08:39:06.057Z,54.57
2023-02-24T08:41:07.392Z,54.35
2023-02-24T08:43:19.500Z,53.90
2023-02-24T08:45:20.864Z,54.00
2023-02-24T08:47:30.927Z,54.03
2023-02-24T08:49:33.307Z,53.59
2023-02-24T08:51:35.474Z,54.08
2023-02-24T08:53:40.367Z,53.91
2023-02-24T08:55:42.774Z,53.81
2023-02-24T08:57:53.497Z,54.14
2023-02-24T08:59:57.855Z,54.18
2023-02-24T09:02:17.836Z,54.01
2023-02-24T09:04:19.713Z,53.86
2023-02-24T09:06:28.280Z,54.07
2023-02-24T09:08:32.711Z,54.13
2023-02-24T09:10:34.233Z,54.41
2023-02-24T09:12:41.062Z,54.24
2023-02-24T09:14:42.367Z,54.49
2023-02-24T09:17:02.296Z,55.01
2023-02-24T09:19:26.520Z,54.46
2023-02-24T09:21:46.314Z,54.89
2023-02-24T09:23:47.627Z,54.39
2023-02-24T09:25:54.329Z,54.54
2023-02-24T09:27:56.253Z,54.34
2023-02-24T09:30:08.063Z,54.36
2023-02-24T09:32:13.610Z,54.20
2023-02-24T09:34:18.501Z,54.31
2023-02-24T09:36:30.167Z,54.49
2023-02-24T09:38:51.841Z,54.25
2023-02-24T09:40:53.162Z,54.41
2023-02-24T09:42:58.368Z,54.27
2023-02-24T09:44:59.706Z,54.31
2023-02-24T09:47:01.049Z,54.49
2023-02-24T09:49:05.394Z,54.51
2023-02-24T09:51:10.529Z,54.36
2023-02-24T09:53:17.262Z,54.05
2023-02-24T09:55:27.681Z,54.36
2023-02-24T09:57:37.531Z,54.16
2023-02-24T09:59:38.886Z,53.80
2023-02-24T10:01:42.977Z,54.04
2023-02-24T10:03:48.142Z,53.29
2023-02-24T10:05:49.597Z,53.22
2023-02-24T10:07:53.222Z,53.20
2023-02-24T10:09:54.563Z,53.28
2023-02-24T10:11:55.920Z,53.36
2023-02-24T10:14:03.461Z,53.05
2023-02-24T10:16:08.027Z,52.89
2023-02-24T10:18:09.339Z,53.32
2023-02-24T10:20:13.966Z,52.86
2023-02-24T10:22:27.406Z,53.21
2023-02-24T10:24:29.501Z,52.91
2023-02-24T10:26:31.962Z,52.96
2023-02-24T10:28:36.200Z,53.00
2023-02-24T10:30:43.647Z,52.99
2023-02-24T10:32:47.231Z,52.84
2023-02-24T10:34:49.368Z,53.32
2023-02-24T10:36:50.667Z,52.94
2023-02-24T10:38:55.981Z,53.20
2023-02-24T10:40:57.318Z,53.37
2023-02-24T10:43:01.760Z,53.33
2023-02-24T10:45:17.185Z,53.69
2023-02-24T10:47:19.868Z,53.27
2023-02-24T10:49:24.823Z,53.79
2023-02-24T10:51:31.931Z,53.29
2023-02-24T10:53:37.601Z,53.23
2023-02-24T10:55:44.873Z,53.20
2023-02-24T10:57:59.137Z,53.42
2023-02-24T11:00:19.654Z,53.25
2023-02-24T11:02:32.683Z,53.52
2023-02-24T11:04:43.886Z,53.25
2023-02-24T11:06:55.724Z,53.49
2023-02-24T11:09:08.932Z,53.09
2023-02-24T11:11:19.863Z,53.15
2023-02-24T11:13:40.349Z,52.95
2023-02-24T11:16:00.343Z,52.78
2023-02-24T11:18:02.337Z,52.77
2023-02-24T11:20:10.843Z,52.57
2023-02-24T11:22:12.220Z,52.61
2023-02-24T11:24:13.512Z,52.63
2023-02-24T11:26:16.940Z,52.50
2023-02-24T11:28:18.572Z,52.35
2023-02-24T11:30:19.938Z,52.72
2023-02-24T11:32:22.124Z,52.32
2023-02-24T11:34:24.861Z,52.67
2023-02-24T11:36:26.161Z,52.31
2023-02-24T11:38:28.015Z,52.69
2023-02-24T11:40:32.588Z,52.38
2023-02-24T11:42:33.921Z,52.49
2023-02-24T11:44:35.215Z,52.09
2023-02-24T11:46:36.612Z,52.40
2023-02-24T11:48:37.961Z,52.02
2023-02-24T11:50:39.866Z,51.87
2023-02-24T11:52:41.230Z,52.03
2023-02-24T11:54:42.557Z,52.07
2023-02-24T11:56:44.158Z,52.15
2023-02-24T11:58:45.475Z,51.96
2023-02-24T12:00:48.022Z,52.18
2023-02-24T12:02:50.141Z,51.92
2023-02-24T12:04:51.516Z,52.06
2023-02-24T12:06:52.881Z,52.23
2023-02-24T12:08:54.235Z,52.57
2023-02-24T12:10:55.837Z,52.11
2023-02-24T12:12:57.184Z,52.51
2023-02-24T12:14:58.498Z,52.12
2023-02-24T12:16:59.792Z,52.59
2023-02-24T12:19:01.195Z,52.49
2023-02-24T12:21:02.495Z,52.46
2023-02-24T12:23:03.799Z,52.58
2023-02-24T12:25:05.164Z,52.41
2023-02-24T12:27:08.003Z,52.36
2023-02-24T12:29:10.691Z,52.59
2023-02-24T12:31:12.394Z,52.80
2023-02-24T12:33:13.895Z,52.56
2023-02-24T12:35:19.841Z,52.64
2023-02-24T12:37:21.192Z,52.73
2023-02-24T12:39:22.603Z,52.99
2023-02-24T12:41:24.031Z,52.79
2023-02-24T12:43:25.520Z,53.00
2023-02-24T12:45:26.854Z,52.84
2023-02-24T12:47:28.166Z,52.81
2023-02-24T12:49:29.492Z,53.36
2023-02-24T12:51:30.803Z,53.06
2023-02-24T12:53:32.101Z,53.46
2023-02-24T12:55:33.444Z,53.18
2023-02-24T12:57:37.043Z,53.77
2023-02-24T12:59:38.594Z,53.85
2023-02-24T13:01:39.902Z,53.74
2023-02-24T13:03:41.247Z,53.47
2023-02-24T13:05:42.674Z,53.71
2023-02-24T13:07:43.984Z,53.44
2023-02-24T13:09:45.340Z,53.09
2023-02-24T13:11:47.527Z,52.91
2023-02-24T13:13:50.471Z,52.87
2023-02-24T13:15:51.815Z,52.62
2023-02-24T13:17:53.215Z,52.52
2023-02-24T13:19:54.711Z,52.36
2023-02-24T13:21:56.015Z,52.25
2023-02-24T13:23:58.215Z,52.67
2023-02-24T13:25:59.691Z,52.29
2023-02-24T13:28:01.110Z,51.95
2023-02-24T13:30:02.443Z,52.39
2023-02-24T13:32:03.869Z,52.41
2023-02-24T13:34:05.240Z,52.25
2023-02-24T13:36:06.656Z,47.10
2023-02-24T13:38:07.981Z,45.74
2023-02-24T13:40:11.408Z,49.37
2023-02-24T13:42:12.725Z,48.09
2023-02-24T13:44:14.022Z,48.92
2023-02-24T13:46:15.366Z,48.94
2023-02-24T13:48:16.720Z,49.72
2023-02-24T13:50:20.897Z,48.34
2023-02-24T13:52:22.248Z,49.62
2023-02-24T13:54:23.574Z,49.10
2023-02-24T13:56:24.880Z,49.99
2023-02-24T13:58:26.222Z,49.18
2023-02-24T14:00:28.101Z,50.09
2023-02-24T14:02:29.514Z,48.91
2023-02-24T14:04:30.903Z,49.59
2023-02-24T14:06:32.210Z,49.14
2023-02-24T14:08:33.550Z,50.18
2023-02-24T14:10:36.912Z,50.68
2023-02-24T14:12:38.298Z,51.22
2023-02-24T14:14:39.600Z,51.29
2023-02-24T14:16:40.975Z,51.80
2023-02-24T14:18:42.270Z,51.91
2023-02-24T14:20:43.641Z,51.66
2023-02-24T14:22:45.048Z,51.65
2023-02-24T14:24:46.361Z,51.57
2023-02-24T14:26:47.720Z,51.77
2023-02-24T14:28:49.034Z,51.80
2023-02-24T14:30:50.533Z,52.04
2023-02-24T14:32:52.002Z,49.74
2023-02-24T14:34:53.435Z,51.00
2023-02-24T14:36:54.750Z,51.93
2023-02-24T14:38:56.047Z,51.96
2023-02-24T14:40:57.396Z,52.69
2023-02-24T14:42:58.892Z,52.93
2023-02-24T14:45:00.239Z,52.58
2023-02-24T14:47:01.589Z,52.99
2023-02-24T14:49:02.915Z,53.43
2023-02-24T14:51:04.278Z,53.51
2023-02-24T14:53:05.599Z,53.68
2023-02-24T14:55:06.983Z,53.75
2023-02-24T14:57:08.297Z,53.67
2023-02-24T14:59:09.599Z,53.55
2023-02-24T15:01:10.916Z,53.81
2023-02-24T15:03:12.241Z,53.60
2023-02-24T15:05:13.609Z,53.36
2023-02-24T15:07:17.398Z,53.67
2023-02-24T15:09:21.799Z,54.11
2023-02-24T15:11:23.144Z,53.62
2023-02-24T15:13:24.743Z,53.76
2023-02-24T15:15:27.213Z,53.62
2023-02-24T15:17:28.568Z,54.16
2023-02-24T15:19:29.858Z,53.96
2023-02-24T15:21:31.351Z,53.93
2023-02-24T15:23:32.742Z,54.21
2023-02-24T15:25:42.710Z,53.88
2023-02-24T15:27:47.344Z,54.01
2023-02-24T15:29:48.721Z,53.96
2023-02-24T15:31:50.188Z,53.52
2023-02-24T15:33:51.558Z,53.77
2023-02-24T15:35:53.978Z,53.64
2023-02-24T15:37:58.164Z,53.03
2023-02-24T15:39:59.504Z,52.34
2023-02-24T15:42:00.800Z,51.81
2023-02-24T15:44:02.279Z,51.78
2023-02-24T15:46:04.588Z,51.85
2023-02-24T15:48:05.947Z,52.15
2023-02-24T15:50:07.239Z,52.39
2023-02-24T15:52:08.563Z,52.62
2023-02-24T15:54:09.905Z,52.37
2023-02-24T15:56:11.250Z,52.76
2023-02-24T15:58:12.549Z,53.24
2023-02-24T16:00:13.881Z,53.14
2023-02-24T16:02:17.246Z,53.16
2023-02-24T16:04:24.408Z,51.97
2023-02-24T16:06:25.780Z,52.60
2023-02-24T16:08:27.093Z,52.05
2023-02-24T16:10:28.677Z,52.14
2023-02-24T16:12:32.000Z,52.02
2023-02-24T16:14:33.373Z,52.67
2023-02-24T16:16:34.732Z,52.35
2023-02-24T16:18:36.033Z,52.70
2023-02-24T16:20:39.795Z,52.95
2023-02-24T16:22:41.220Z,52.68
2023-02-24T16:24:46.495Z,52.88
2023-02-24T16:26:47.805Z,52.65
2023-02-24T16:28:49.111Z,52.75
2023-02-24T16:30:50.566Z,52.78
2023-02-24T16:32:52.198Z,52.95
2023-02-24T16:34:53.567Z,52.94
2023-02-24T16:36:54.879Z,52.37
2023-02-24T16:38:56.327Z,52.37
2023-02-24T16:40:57.947Z,52.07
2023-02-24T16:42:59.337Z,52.27
2023-02-24T16:45:00.671Z,52.34
2023-02-24T16:47:02.269Z,51.92
2023-02-24T16:49:03.649Z,51.79
2023-02-24T16:51:05.106Z,51.89
2023-02-24T16:53:06.434Z,52.28
2023-02-24T16:55:07.724Z,51.99
2023-02-24T16:57:09.298Z,51.87
2023-02-24T16:59:10.625Z,51.94
2023-02-24T17:01:21.913Z,52.12
2023-02-24T17:03:23.302Z,52.16
2023-02-24T17:05:24.661Z,52.36
2023-02-24T17:07:26.248Z,52.43
2023-02-24T17:09:29.572Z,52.58
2023-02-24T17:11:33.685Z,52.75
2023-02-24T17:13:34.979Z,52.74
2023-02-24T17:15:36.335Z,52.59
2023-02-24T17:17:40.927Z,52.64
2023-02-24T17:19:42.246Z,53.06
2023-02-24T17:21:43.610Z,53.12
2023-02-24T17:23:44.916Z,52.74
2023-02-24T17:25:46.209Z,52.99
2023-02-24T17:27:47.532Z,52.83
2023-02-24T17:29:48.860Z,53.07
2023-02-24T17:31:50.371Z,53.02
2023-02-24T17:33:51.999Z,53.12
2023-02-24T17:35:53.356Z,53.11
2023-02-24T17:37:54.678Z,53.11
2023-02-24T17:39:55.975Z,52.90
2023-02-24T17:41:57.273Z,53.47
2023-02-24T17:44:01.618Z,52.84
2023-02-24T17:46:05.838Z,52.99
2023-02-24T17:48:08.354Z,52.95
2023-02-24T17:50:09.652Z,53.13
2023-02-24T17:52:11.180Z,53.08
2023-02-24T17:54:12.468Z,53.21
2023-02-24T17:56:13.786Z,53.06
2023-02-24T17:58:15.101Z,53.20
2023-02-24T18:00:16.396Z,53.19
2023-02-24T18:02:17.839Z,53.05
2023-02-24T18:04:22.067Z,53.16
2023-02-24T18:06:23.659Z,52.84
2023-02-24T18:08:25.085Z,52.92
2023-02-24T18:10:27.326Z,52.96
2023-02-24T18:12:28.638Z,52.66
2023-02-24T18:14:29.963Z,52.43
2023-02-24T18:16:31.465Z,52.49
2023-02-24T18:18:32.836Z,52.44
2023-02-24T18:20:34.360Z,52.42
2023-02-24T18:22:35.703Z,52.68
2023-02-24T18:24:37.007Z,52.39
2023-02-24T18:26:39.609Z,52.86
2023-02-24T18:28:41.025Z,52.63
2023-02-24T18:30:42.429Z,51.84
2023-02-24T18:32:44.860Z,51.35
2023-02-24T18:34:46.335Z,50.69
2023-02-24T18:36:47.747Z,51.07
2023-02-24T18:38:49.073Z,51.64
2023-02-24T18:40:53.147Z,50.75
2023-02-24T18:43:00.583Z,51.53
2023-02-24T18:45:02.162Z,52.12
2023-02-24T18:47:09.294Z,53.21
2023-02-24T18:49:11.803Z,51.95
2023-02-24T18:51:13.179Z,52.03
2023-02-24T18:53:20.709Z,52.31
2023-02-24T18:55:22.217Z,52.46
2023-02-24T18:57:23.528Z,50.50
2023-02-24T18:59:25.620Z,50.95
2023-02-24T19:01:27.009Z,51.38
2023-02-24T19:03:28.360Z,50.95
2023-02-24T19:05:37.965Z,51.35
2023-02-24T19:07:39.630Z,51.70
2023-02-24T19:09:42.651Z,51.79
2023-02-24T19:11:44.166Z,52.28
2023-02-24T19:13:47.573Z,52.27
2023-02-24T19:15:48.895Z,52.60
2023-02-24T19:17:50.273Z,52.63
2023-02-24T19:19:51.689Z,53.07
2023-02-24T19:21:52.995Z,50.79
2023-02-24T19:23:54.325Z,52.37
2023-02-24T19:25:55.641Z,52.11
2023-02-24T19:28:02.873Z,52.54
2023-02-24T19:30:04.209Z,52.14
2023-02-24T19:32:05.784Z,51.98
2023-02-24T19:34:07.435Z,52.45
2023-02-24T19:36:10.004Z,52.56
2023-02-24T19:38:11.299Z,52.21
2023-02-24T19:40:12.800Z,52.88
2023-02-24T19:42:14.600Z,52.83
2023-02-24T19:44:15.891Z,52.54
2023-02-24T19:46:17.322Z,52.80
2023-02-24T19:48:18.680Z,51.83
2023-02-24T19:50:20.008Z,51.56
2023-02-24T19:52:21.348Z,51.82
2023-02-24T19:54:22.847Z,52.34
2023-02-24T19:56:24.491Z,52.55
2023-02-24T19:58:26.030Z,51.90
2023-02-24T20:00:27.331Z,50.62
2023-02-24T20:02:29.425Z,51.81
2023-02-24T20:04:30.799Z,51.45
2023-02-24T20:06:32.200Z,52.65
2023-02-24T20:08:33.545Z,52.38
2023-02-24T20:10:34.901Z,51.99
2023-02-24T20:12:39.000Z,52.90
2023-02-24T20:14:46.116Z,51.68
2023-02-24T20:16:47.541Z,52.23
2023-02-24T20:18:48.939Z,51.34
2023-02-24T20:20:50.427Z,50.69
2023-02-24T20:22:51.847Z,51.21
2023-02-24T20:24:53.152Z,51.07
2023-02-24T20:27:00.284Z,51.38
2023-02-24T20:29:02.249Z,50.27
2023-02-24T20:31:03.601Z,50.26
2023-02-24T20:33:05.051Z,51.17
2023-02-24T20:35:06.476Z,51.26
2023-02-24T20:37:07.819Z,50.62
2023-02-24T20:39:12.285Z,51.01
2023-02-24T20:41:16.408Z,51.53
2023-02-24T20:43:20.635Z,51.56
2023-02-24T20:45:22.010Z,52.32
2023-02-24T20:47:23.437Z,52.33
2023-02-24T20:49:24.830Z,52.94
2023-02-24T20:51:26.584Z,52.10
2023-02-24T20:53:31.055Z,52.75
2023-02-24T20:55:32.339Z,54.09
2023-02-24T20:57:33.932Z,53.50
2023-02-24T20:59:40.680Z,53.13
2023-02-24T21:01:42.060Z,52.15
2023-02-24T21:03:46.309Z,51.97
2023-02-24T21:05:58.872Z,52.49
2023-02-24T21:08:10.327Z,52.47
2023-02-24T21:10:11.664Z,53.20
2023-02-24T21:12:12.976Z,53.10
2023-02-24T21:14:14.268Z,53.34
2023-02-24T21:16:15.739Z,53.29
2023-02-24T21:18:17.072Z,53.87
2023-02-24T21:20:18.365Z,53.49
2023-02-24T21:22:22.324Z,53.91
2023-02-24T21:24:26.765Z,53.33
2023-02-24T21:26:29.181Z,53.16
2023-02-24T21:28:30.541Z,53.01
2023-02-24T21:30:31.888Z,53.16
2023-02-24T21:32:33.376Z,53.13
2023-02-24T21:34:34.731Z,52.87
2023-02-24T21:36:36.052Z,52.51
2023-02-24T21:38:37.348Z,53.06
2023-02-24T21:40:38.704Z,52.89
2023-02-24T21:42:43.074Z,52.66
2023-02-24T21:44:44.771Z,52.87
2023-02-24T21:46:46.796Z,52.59
2023-02-24T21:48:51.120Z,52.79
2023-02-24T21:50:52.688Z,53.02
2023-02-24T21:52:55.897Z,53.14
2023-02-24T21:54:57.976Z,53.53
2023-02-24T21:56:59.411Z,53.23
2023-02-24T21:59:00.805Z,53.64
2023-02-24T22:01:02.141Z,53.70
2023-02-24T22:03:03.467Z,53.64
2023-02-24T22:05:04.830Z,54.21
2023-02-24T22:07:06.111Z,54.23
2023-02-24T22:09:07.451Z,54.62
2023-02-24T22:11:08.743Z,54.11
2023-02-24T22:13:10.034Z,54.28
2023-02-24T22:15:11.364Z,53.56
2023-02-24T22:17:12.723Z,53.22
2023-02-24T22:19:14.022Z,45.83
2023-02-24T22:21:17.232Z,43.98
2023-02-24T22:23:18.556Z,43.55
2023-02-24T22:25:19.863Z,42.76
2023-02-24T22:27:21.167Z,43.39
2023-02-24T22:29:22.616Z,44.40
2023-02-24T22:31:24.000Z,44.15
2023-02-24T22:33:25.364Z,44.86
2023-02-24T22:35:26.669Z,44.41
2023-02-24T22:37:28.017Z,45.99
2023-02-24T22:39:29.398Z,45.64
2023-02-24T22:41:31.323Z,45.64
2023-02-24T22:43:35.928Z,46.32
2023-02-24T22:45:40.240Z,46.59
2023-02-24T22:47:41.596Z,46.47
2023-02-24T22:49:42.966Z,47.20
2023-02-24T22:51:45.689Z,46.84
2023-02-24T22:53:46.994Z,48.03
2023-02-24T22:55:48.314Z,49.23
2023-02-24T22:57:49.609Z,49.62
2023-02-24T22:59:50.942Z,48.63
2023-02-24T23:01:52.294Z,49.02
2023-02-24T23:03:53.676Z,49.25
2023-02-24T23:05:55.390Z,49.98
2023-02-24T23:07:56.704Z,48.97
2023-02-24T23:09:59.287Z,50.85
2023-02-24T23:12:00.624Z,50.27
2023-02-24T23:14:01.947Z,49.39
2023-02-24T23:16:03.594Z,50.57
2023-02-24T23:18:05.036Z,51.35
2023-02-24T23:20:12.766Z,50.47
2023-02-24T23:22:14.843Z,51.45
2023-02-24T23:24:16.162Z,51.84
2023-02-24T23:26:18.098Z,51.36
2023-02-24T23:28:19.510Z,51.26
2023-02-24T23:30:20.889Z,51.05
2023-02-24T23:32:22.285Z,46.67
2023-02-24T23:34:23.933Z,44.60
2023-02-24T23:36:25.582Z,44.26
2023-02-24T23:38:30.206Z,46.84
2023-02-24T23:40:48.101Z,46.50
2023-02-24T23:42:50.716Z,46.76
2023-02-24T23:44:52.037Z,47.46
2023-02-24T23:46:53.383Z,48.00
2023-02-24T23:48:54.681Z,48.58
2023-02-24T23:50:57.348Z,48.63
2023-02-24T23:52:58.652Z,49.32
2023-02-24T23:55:00.289Z,49.37
2023-02-24T23:57:02.190Z,50.06
2023-02-24T23:59:03.538Z,50.22
